sensor_id;sensor_type;location;lat;lon;timestamp;P1;durP1;ratioP1;P2;durP2;ratioP2
65174;SDS011;51761;42.126;24.752;2023-05-07T00:01:26;12.30;;;7.82;;
65174;SDS011;51761;42.126;24.752;2023-05-07T00:03:52;15.05;;;7.78;;
65174;SDS011;51761;42.126;24.752;2023-05-07T00:06:17;15.15;;;8.82;;
65174;SDS011;51761;42.126;24.752;2023-05-07T00:08:43;13.07;;;7.78;;
65174;SDS011;51761;42.126;24.752;2023-05-07T00:11:08;14.60;;;7.75;;
65174;SDS011;51761;42.126;24.752;2023-05-07T00:13:34;15.77;;;8.65;;
65174;SDS011;51761;42.126;24.752;2023-05-07T00:16:03;12.15;;;7.53;;
65174;SDS011;51761;42.126;24.752;2023-05-07T00:18:29;14.63;;;8.40;;
65174;SDS011;51761;42.126;24.752;2023-05-07T00:20:54;13.57;;;7.57;;
65174;SDS011;51761;42.126;24.752;2023-05-07T00:23:21;16.85;;;7.68;;
65174;SDS011;51761;42.126;24.752;2023-05-07T00:25:47;13.68;;;7.43;;
65174;SDS011;51761;42.126;24.752;2023-05-07T00:28:12;14.45;;;7.40;;
65174;SDS011;51761;42.126;24.752;2023-05-07T00:30:38;14.90;;;7.30;;
65174;SDS011;51761;42.126;24.752;2023-05-07T00:33:03;10.75;;;7.07;;
65174;SDS011;51761;42.126;24.752;2023-05-07T00:35:29;11.45;;;7.32;;
65174;SDS011;51761;42.126;24.752;2023-05-07T00:37:55;11.20;;;7.35;;
65174;SDS011;51761;42.126;24.752;2023-05-07T00:40:20;16.30;;;6.65;;
65174;SDS011;51761;42.126;24.752;2023-05-07T00:42:46;15.38;;;7.35;;
65174;SDS011;51761;42.126;24.752;2023-05-07T00:45:15;10.98;;;6.53;;
65174;SDS011;51761;42.126;24.752;2023-05-07T00:47:42;10.23;;;6.75;;
65174;SDS011;51761;42.126;24.752;2023-05-07T00:50:08;14.85;;;6.60;;
65174;SDS011;51761;42.126;24.752;2023-05-07T00:52:35;10.48;;;6.50;;
65174;SDS011;51761;42.126;24.752;2023-05-07T00:55:04;10.82;;;6.57;;
65174;SDS011;51761;42.126;24.752;2023-05-07T00:57:37;11.10;;;6.90;;
65174;SDS011;51761;42.126;24.752;2023-05-07T01:00:05;10.98;;;6.78;;
65174;SDS011;51761;42.126;24.752;2023-05-07T01:02:33;10.45;;;6.80;;
65174;SDS011;51761;42.126;24.752;2023-05-07T01:04:59;12.65;;;6.38;;
65174;SDS011;51761;42.126;24.752;2023-05-07T01:07:25;10.75;;;6.63;;
65174;SDS011;51761;42.126;24.752;2023-05-07T01:09:52;13.55;;;6.30;;
65174;SDS011;51761;42.126;24.752;2023-05-07T01:12:18;13.32;;;7.00;;
65174;SDS011;51761;42.126;24.752;2023-05-07T01:14:45;9.45;;;6.60;;
65174;SDS011;51761;42.126;24.752;2023-05-07T01:17:10;13.68;;;6.80;;
65174;SDS011;51761;42.126;24.752;2023-05-07T01:19:36;10.75;;;6.40;;
65174;SDS011;51761;42.126;24.752;2023-05-07T01:22:02;15.05;;;7.03;;
65174;SDS011;51761;42.126;24.752;2023-05-07T01:24:32;14.82;;;6.43;;
65174;SDS011;51761;42.126;24.752;2023-05-07T01:26:58;14.98;;;7.38;;
65174;SDS011;51761;42.126;24.752;2023-05-07T01:29:24;12.98;;;6.75;;
65174;SDS011;51761;42.126;24.752;2023-05-07T01:31:50;8.32;;;6.38;;
65174;SDS011;51761;42.126;24.752;2023-05-07T01:34:17;13.60;;;6.82;;
65174;SDS011;51761;42.126;24.752;2023-05-07T01:36:45;15.95;;;7.45;;
65174;SDS011;51761;42.126;24.752;2023-05-07T01:39:12;11.90;;;6.88;;
65174;SDS011;51761;42.126;24.752;2023-05-07T01:41:38;14.07;;;7.25;;
65174;SDS011;51761;42.126;24.752;2023-05-07T01:44:04;11.27;;;7.03;;
65174;SDS011;51761;42.126;24.752;2023-05-07T01:46:31;9.80;;;6.80;;
65174;SDS011;51761;42.126;24.752;2023-05-07T01:48:57;12.75;;;7.35;;
65174;SDS011;51761;42.126;24.752;2023-05-07T01:51:23;10.23;;;7.10;;
65174;SDS011;51761;42.126;24.752;2023-05-07T01:53:51;10.60;;;7.18;;
65174;SDS011;51761;42.126;24.752;2023-05-07T01:56:18;12.98;;;6.85;;
65174;SDS011;51761;42.126;24.752;2023-05-07T01:58:44;12.48;;;7.03;;
65174;SDS011;51761;42.126;24.752;2023-05-07T02:01:11;16.67;;;7.10;;
65174;SDS011;51761;42.126;24.752;2023-05-07T02:03:37;11.00;;;7.03;;
65174;SDS011;51761;42.126;24.752;2023-05-07T02:06:03;8.82;;;6.03;;
65174;SDS011;51761;42.126;24.752;2023-05-07T02:08:28;11.02;;;6.32;;
65174;SDS011;51761;42.126;24.752;2023-05-07T02:10:55;12.10;;;8.02;;
65174;SDS011;51761;42.126;24.752;2023-05-07T02:13:20;13.50;;;7.78;;
65174;SDS011;51761;42.126;24.752;2023-05-07T02:15:47;13.02;;;8.15;;
65174;SDS011;51761;42.126;24.752;2023-05-07T02:18:15;11.18;;;6.82;;
65174;SDS011;51761;42.126;24.752;2023-05-07T02:20:41;13.18;;;7.53;;
65174;SDS011;51761;42.126;24.752;2023-05-07T02:23:07;11.50;;;7.53;;
65174;SDS011;51761;42.126;24.752;2023-05-07T02:25:32;13.82;;;8.50;;
65174;SDS011;51761;42.126;24.752;2023-05-07T02:27:58;18.27;;;7.28;;
65174;SDS011;51761;42.126;24.752;2023-05-07T02:30:24;11.68;;;7.22;;
65174;SDS011;51761;42.126;24.752;2023-05-07T02:32:50;8.45;;;6.53;;
65174;SDS011;51761;42.126;24.752;2023-05-07T02:35:15;13.02;;;7.07;;
65174;SDS011;51761;42.126;24.752;2023-05-07T02:37:41;12.25;;;8.02;;
65174;SDS011;51761;42.126;24.752;2023-05-07T02:40:07;12.88;;;7.53;;
65174;SDS011;51761;42.126;24.752;2023-05-07T02:42:33;18.05;;;8.00;;
65174;SDS011;51761;42.126;24.752;2023-05-07T02:44:59;17.77;;;8.80;;
65174;SDS011;51761;42.126;24.752;2023-05-07T02:47:24;13.82;;;9.07;;
65174;SDS011;51761;42.126;24.752;2023-05-07T02:49:53;17.73;;;8.52;;
65174;SDS011;51761;42.126;24.752;2023-05-07T02:52:19;15.52;;;8.77;;
65174;SDS011;51761;42.126;24.752;2023-05-07T02:54:44;12.48;;;8.40;;
65174;SDS011;51761;42.126;24.752;2023-05-07T02:57:10;11.93;;;8.98;;
65174;SDS011;51761;42.126;24.752;2023-05-07T02:59:35;18.67;;;8.50;;
65174;SDS011;51761;42.126;24.752;2023-05-07T03:02:01;16.85;;;9.88;;
65174;SDS011;51761;42.126;24.752;2023-05-07T03:04:27;18.65;;;9.50;;
65174;SDS011;51761;42.126;24.752;2023-05-07T03:06:52;14.18;;;10.32;;
65174;SDS011;51761;42.126;24.752;2023-05-07T03:09:17;20.50;;;9.43;;
65174;SDS011;51761;42.126;24.752;2023-05-07T03:11:43;16.15;;;8.77;;
65174;SDS011;51761;42.126;24.752;2023-05-07T03:14:08;15.70;;;9.50;;
65174;SDS011;51761;42.126;24.752;2023-05-07T03:16:34;16.58;;;10.45;;
65174;SDS011;51761;42.126;24.752;2023-05-07T03:18:59;20.95;;;11.60;;
65174;SDS011;51761;42.126;24.752;2023-05-07T03:21:25;17.40;;;10.18;;
65174;SDS011;51761;42.126;24.752;2023-05-07T03:23:51;17.77;;;10.68;;
65174;SDS011;51761;42.126;24.752;2023-05-07T03:26:16;17.00;;;10.85;;
65174;SDS011;51761;42.126;24.752;2023-05-07T03:28:42;17.98;;;10.55;;
65174;SDS011;51761;42.126;24.752;2023-05-07T03:31:07;19.05;;;10.63;;
65174;SDS011;51761;42.126;24.752;2023-05-07T03:33:33;16.58;;;11.07;;
65174;SDS011;51761;42.126;24.752;2023-05-07T03:36:00;20.67;;;10.80;;
65174;SDS011;51761;42.126;24.752;2023-05-07T03:38:25;17.25;;;11.10;;
65174;SDS011;51761;42.126;24.752;2023-05-07T03:40:51;16.95;;;11.30;;
65174;SDS011;51761;42.126;24.752;2023-05-07T03:43:16;18.38;;;11.27;;
65174;SDS011;51761;42.126;24.752;2023-05-07T03:45:42;19.90;;;11.20;;
65174;SDS011;51761;42.126;24.752;2023-05-07T03:48:07;16.92;;;11.10;;
65174;SDS011;51761;42.126;24.752;2023-05-07T03:50:33;20.65;;;12.20;;
65174;SDS011;51761;42.126;24.752;2023-05-07T03:52:58;25.35;;;12.70;;
65174;SDS011;51761;42.126;24.752;2023-05-07T03:55:24;17.10;;;12.10;;
65174;SDS011;51761;42.126;24.752;2023-05-07T03:57:50;19.67;;;11.95;;
65174;SDS011;51761;42.126;24.752;2023-05-07T04:00:16;19.50;;;12.18;;
65174;SDS011;51761;42.126;24.752;2023-05-07T04:02:41;19.30;;;11.88;;
65174;SDS011;51761;42.126;24.752;2023-05-07T04:05:07;19.95;;;11.35;;
65174;SDS011;51761;42.126;24.752;2023-05-07T04:07:33;19.45;;;12.10;;
65174;SDS011;51761;42.126;24.752;2023-05-07T04:09:58;25.40;;;12.50;;
65174;SDS011;51761;42.126;24.752;2023-05-07T04:12:24;19.67;;;11.20;;
65174;SDS011;51761;42.126;24.752;2023-05-07T04:14:49;17.23;;;10.75;;
65174;SDS011;51761;42.126;24.752;2023-05-07T04:17:15;24.80;;;11.90;;
65174;SDS011;51761;42.126;24.752;2023-05-07T04:19:40;15.38;;;10.35;;
65174;SDS011;51761;42.126;24.752;2023-05-07T04:22:10;19.38;;;10.00;;
65174;SDS011;51761;42.126;24.752;2023-05-07T04:24:36;17.98;;;10.10;;
65174;SDS011;51761;42.126;24.752;2023-05-07T04:27:01;18.00;;;9.57;;
65174;SDS011;51761;42.126;24.752;2023-05-07T04:29:27;30.15;;;18.58;;
65174;SDS011;51761;42.126;24.752;2023-05-07T04:31:53;23.42;;;14.07;;
65174;SDS011;51761;42.126;24.752;2023-05-07T04:34:20;21.40;;;11.30;;
65174;SDS011;51761;42.126;24.752;2023-05-07T04:36:46;16.17;;;10.13;;
65174;SDS011;51761;42.126;24.752;2023-05-07T04:39:13;21.17;;;11.35;;
65174;SDS011;51761;42.126;24.752;2023-05-07T04:41:38;16.80;;;10.60;;
65174;SDS011;51761;42.126;24.752;2023-05-07T04:44:04;18.15;;;10.10;;
65174;SDS011;51761;42.126;24.752;2023-05-07T04:46:29;15.98;;;9.43;;
65174;SDS011;51761;42.126;24.752;2023-05-07T04:48:55;17.58;;;9.93;;
65174;SDS011;51761;42.126;24.752;2023-05-07T04:51:21;16.52;;;9.98;;
65174;SDS011;51761;42.126;24.752;2023-05-07T04:53:47;17.40;;;10.27;;
65174;SDS011;51761;42.126;24.752;2023-05-07T04:56:14;15.10;;;9.13;;
65174;SDS011;51761;42.126;24.752;2023-05-07T04:58:39;17.73;;;10.20;;
65174;SDS011;51761;42.126;24.752;2023-05-07T05:01:05;25.88;;;16.10;;
65174;SDS011;51761;42.126;24.752;2023-05-07T05:03:31;19.17;;;11.95;;
65174;SDS011;51761;42.126;24.752;2023-05-07T05:05:56;16.42;;;10.82;;
65174;SDS011;51761;42.126;24.752;2023-05-07T05:08:24;15.82;;;9.30;;
65174;SDS011;51761;42.126;24.752;2023-05-07T05:10:49;17.33;;;9.77;;
65174;SDS011;51761;42.126;24.752;2023-05-07T05:13:15;14.93;;;9.32;;
65174;SDS011;51761;42.126;24.752;2023-05-07T05:15:41;17.92;;;8.35;;
65174;SDS011;51761;42.126;24.752;2023-05-07T05:18:06;19.50;;;9.40;;
65174;SDS011;51761;42.126;24.752;2023-05-07T05:20:32;34.05;;;19.20;;
65174;SDS011;51761;42.126;24.752;2023-05-07T05:22:57;23.48;;;12.57;;
65174;SDS011;51761;42.126;24.752;2023-05-07T05:25:23;14.32;;;9.05;;
65174;SDS011;51761;42.126;24.752;2023-05-07T05:27:48;12.07;;;8.20;;
65174;SDS011;51761;42.126;24.752;2023-05-07T05:30:14;19.02;;;8.13;;
65174;SDS011;51761;42.126;24.752;2023-05-07T05:32:39;13.05;;;8.55;;
65174;SDS011;51761;42.126;24.752;2023-05-07T05:35:05;13.55;;;8.68;;
65174;SDS011;51761;42.126;24.752;2023-05-07T05:37:30;14.93;;;9.85;;
65174;SDS011;51761;42.126;24.752;2023-05-07T05:39:56;13.18;;;8.60;;
65174;SDS011;51761;42.126;24.752;2023-05-07T05:42:22;20.23;;;9.48;;
65174;SDS011;51761;42.126;24.752;2023-05-07T05:44:48;20.08;;;9.48;;
65174;SDS011;51761;42.126;24.752;2023-05-07T05:47:14;18.67;;;8.73;;
65174;SDS011;51761;42.126;24.752;2023-05-07T05:49:39;16.88;;;9.05;;
65174;SDS011;51761;42.126;24.752;2023-05-07T05:52:05;19.48;;;9.18;;
65174;SDS011;51761;42.126;24.752;2023-05-07T05:54:30;14.18;;;8.20;;
65174;SDS011;51761;42.126;24.752;2023-05-07T05:56:56;16.33;;;7.82;;
65174;SDS011;51761;42.126;24.752;2023-05-07T05:59:21;17.17;;;10.02;;
65174;SDS011;51761;42.126;24.752;2023-05-07T06:01:47;21.38;;;10.57;;
65174;SDS011;51761;42.126;24.752;2023-05-07T06:04:13;16.70;;;9.05;;
65174;SDS011;51761;42.126;24.752;2023-05-07T06:06:38;22.40;;;10.40;;
65174;SDS011;51761;42.126;24.752;2023-05-07T06:09:04;21.52;;;11.38;;
65174;SDS011;51761;42.126;24.752;2023-05-07T06:11:29;16.70;;;7.68;;
65174;SDS011;51761;42.126;24.752;2023-05-07T06:13:56;26.73;;;14.82;;
65174;SDS011;51761;42.126;24.752;2023-05-07T06:16:21;78.05;;;37.38;;
65174;SDS011;51761;42.126;24.752;2023-05-07T06:18:47;23.55;;;11.35;;
65174;SDS011;51761;42.126;24.752;2023-05-07T06:21:13;17.58;;;7.45;;
65174;SDS011;51761;42.126;24.752;2023-05-07T06:23:39;19.02;;;9.80;;
65174;SDS011;51761;42.126;24.752;2023-05-07T06:26:06;19.52;;;9.23;;
65174;SDS011;51761;42.126;24.752;2023-05-07T06:28:32;17.40;;;8.82;;
65174;SDS011;51761;42.126;24.752;2023-05-07T06:31:13;12.30;;;6.57;;
65174;SDS011;51761;42.126;24.752;2023-05-07T06:33:42;11.57;;;6.45;;
65174;SDS011;51761;42.126;24.752;2023-05-07T06:36:09;17.85;;;9.75;;
65174;SDS011;51761;42.126;24.752;2023-05-07T06:38:35;13.98;;;8.00;;
65174;SDS011;51761;42.126;24.752;2023-05-07T06:41:01;13.40;;;7.35;;
65174;SDS011;51761;42.126;24.752;2023-05-07T06:43:26;10.73;;;6.25;;
65174;SDS011;51761;42.126;24.752;2023-05-07T06:45:52;13.25;;;7.00;;
65174;SDS011;51761;42.126;24.752;2023-05-07T06:48:17;14.25;;;6.13;;
65174;SDS011;51761;42.126;24.752;2023-05-07T06:50:43;13.82;;;6.25;;
65174;SDS011;51761;42.126;24.752;2023-05-07T06:53:08;11.30;;;6.18;;
65174;SDS011;51761;42.126;24.752;2023-05-07T06:55:34;12.63;;;6.70;;
65174;SDS011;51761;42.126;24.752;2023-05-07T06:57:59;14.02;;;7.22;;
65174;SDS011;51761;42.126;24.752;2023-05-07T07:00:29;13.85;;;6.72;;
65174;SDS011;51761;42.126;24.752;2023-05-07T07:02:55;16.65;;;9.02;;
65174;SDS011;51761;42.126;24.752;2023-05-07T07:05:21;9.93;;;6.32;;
65174;SDS011;51761;42.126;24.752;2023-05-07T07:07:47;10.35;;;5.35;;
65174;SDS011;51761;42.126;24.752;2023-05-07T07:10:21;13.45;;;6.20;;
65174;SDS011;51761;42.126;24.752;2023-05-07T07:12:48;8.55;;;6.18;;
65174;SDS011;51761;42.126;24.752;2023-05-07T07:15:14;10.02;;;5.28;;
65174;SDS011;51761;42.126;24.752;2023-05-07T07:17:40;9.32;;;5.63;;
65174;SDS011;51761;42.126;24.752;2023-05-07T07:20:05;12.88;;;5.47;;
65174;SDS011;51761;42.126;24.752;2023-05-07T07:22:32;9.65;;;5.53;;
65174;SDS011;51761;42.126;24.752;2023-05-07T07:24:57;16.77;;;7.03;;
65174;SDS011;51761;42.126;24.752;2023-05-07T07:27:23;12.77;;;5.60;;
65174;SDS011;51761;42.126;24.752;2023-05-07T07:29:48;11.80;;;5.95;;
65174;SDS011;51761;42.126;24.752;2023-05-07T07:32:14;11.10;;;5.88;;
65174;SDS011;51761;42.126;24.752;2023-05-07T07:34:40;9.15;;;6.32;;
65174;SDS011;51761;42.126;24.752;2023-05-07T07:37:05;9.73;;;5.90;;
65174;SDS011;51761;42.126;24.752;2023-05-07T07:39:34;13.68;;;6.78;;
65174;SDS011;51761;42.126;24.752;2023-05-07T07:42:02;8.68;;;6.53;;
65174;SDS011;51761;42.126;24.752;2023-05-07T07:44:28;8.32;;;5.97;;
65174;SDS011;51761;42.126;24.752;2023-05-07T07:46:53;9.05;;;5.93;;
65174;SDS011;51761;42.126;24.752;2023-05-07T07:49:19;10.93;;;5.75;;
65174;SDS011;51761;42.126;24.752;2023-05-07T07:51:45;9.85;;;5.65;;
65174;SDS011;51761;42.126;24.752;2023-05-07T07:54:10;9.82;;;5.75;;
65174;SDS011;51761;42.126;24.752;2023-05-07T07:56:36;10.73;;;5.60;;
65174;SDS011;51761;42.126;24.752;2023-05-07T07:59:01;12.25;;;6.68;;
65174;SDS011;51761;42.126;24.752;2023-05-07T08:01:30;13.52;;;5.75;;
65174;SDS011;51761;42.126;24.752;2023-05-07T08:03:56;12.75;;;5.50;;
65174;SDS011;51761;42.126;24.752;2023-05-07T08:06:24;9.05;;;6.05;;
65174;SDS011;51761;42.126;24.752;2023-05-07T08:08:53;16.73;;;6.90;;
65174;SDS011;51761;42.126;24.752;2023-05-07T08:11:19;12.80;;;5.88;;
65174;SDS011;51761;42.126;24.752;2023-05-07T08:13:45;10.93;;;5.40;;
65174;SDS011;51761;42.126;24.752;2023-05-07T08:16:11;9.60;;;4.65;;
65174;SDS011;51761;42.126;24.752;2023-05-07T08:18:36;15.63;;;4.80;;
65174;SDS011;51761;42.126;24.752;2023-05-07T08:21:02;9.88;;;5.10;;
65174;SDS011;51761;42.126;24.752;2023-05-07T08:23:27;11.80;;;4.80;;
65174;SDS011;51761;42.126;24.752;2023-05-07T08:25:53;8.20;;;4.68;;
65174;SDS011;51761;42.126;24.752;2023-05-07T08:28:18;7.18;;;3.63;;
65174;SDS011;51761;42.126;24.752;2023-05-07T08:30:45;8.18;;;3.88;;
65174;SDS011;51761;42.126;24.752;2023-05-07T08:33:11;9.18;;;4.82;;
65174;SDS011;51761;42.126;24.752;2023-05-07T08:35:37;5.47;;;4.45;;
65174;SDS011;51761;42.126;24.752;2023-05-07T08:38:02;11.57;;;5.20;;
65174;SDS011;51761;42.126;24.752;2023-05-07T08:40:28;8.23;;;5.30;;
65174;SDS011;51761;42.126;24.752;2023-05-07T08:42:54;11.20;;;6.20;;
65174;SDS011;51761;42.126;24.752;2023-05-07T08:45:21;7.28;;;4.75;;
65174;SDS011;51761;42.126;24.752;2023-05-07T08:47:50;9.98;;;5.60;;
65174;SDS011;51761;42.126;24.752;2023-05-07T08:50:20;17.48;;;9.30;;
65174;SDS011;51761;42.126;24.752;2023-05-07T08:52:47;7.68;;;4.80;;
65174;SDS011;51761;42.126;24.752;2023-05-07T08:55:13;5.93;;;4.38;;
65174;SDS011;51761;42.126;24.752;2023-05-07T08:57:38;8.30;;;4.88;;
65174;SDS011;51761;42.126;24.752;2023-05-07T09:00:04;15.73;;;4.05;;
65174;SDS011;51761;42.126;24.752;2023-05-07T09:02:32;7.85;;;3.95;;
65174;SDS011;51761;42.126;24.752;2023-05-07T09:04:58;5.68;;;3.22;;
65174;SDS011;51761;42.126;24.752;2023-05-07T09:07:23;8.15;;;3.10;;
65174;SDS011;51761;42.126;24.752;2023-05-07T09:09:49;6.20;;;3.00;;
65174;SDS011;51761;42.126;24.752;2023-05-07T09:12:15;6.13;;;3.28;;
65174;SDS011;51761;42.126;24.752;2023-05-07T09:14:43;12.70;;;3.35;;
65174;SDS011;51761;42.126;24.752;2023-05-07T09:17:08;5.10;;;3.28;;
65174;SDS011;51761;42.126;24.752;2023-05-07T09:19:33;12.00;;;3.83;;
65174;SDS011;51761;42.126;24.752;2023-05-07T09:22:00;8.55;;;3.65;;
65174;SDS011;51761;42.126;24.752;2023-05-07T09:24:30;5.90;;;2.75;;
65174;SDS011;51761;42.126;24.752;2023-05-07T09:27:00;5.30;;;2.28;;
65174;SDS011;51761;42.126;24.752;2023-05-07T09:29:27;7.57;;;3.25;;
65174;SDS011;51761;42.126;24.752;2023-05-07T09:32:00;4.60;;;2.90;;
65174;SDS011;51761;42.126;24.752;2023-05-07T09:34:28;7.50;;;2.78;;
65174;SDS011;51761;42.126;24.752;2023-05-07T09:36:54;9.23;;;3.05;;
65174;SDS011;51761;42.126;24.752;2023-05-07T09:39:20;6.78;;;3.13;;
65174;SDS011;51761;42.126;24.752;2023-05-07T09:41:46;5.60;;;2.53;;
65174;SDS011;51761;42.126;24.752;2023-05-07T09:44:12;3.30;;;2.50;;
65174;SDS011;51761;42.126;24.752;2023-05-07T09:46:39;6.40;;;2.70;;
65174;SDS011;51761;42.126;24.752;2023-05-07T09:49:08;5.80;;;2.67;;
65174;SDS011;51761;42.126;24.752;2023-05-07T09:51:45;5.15;;;2.75;;
65174;SDS011;51761;42.126;24.752;2023-05-07T09:54:14;6.07;;;3.17;;
65174;SDS011;51761;42.126;24.752;2023-05-07T09:56:40;6.38;;;2.58;;
65174;SDS011;51761;42.126;24.752;2023-05-07T09:59:10;3.83;;;3.00;;
65174;SDS011;51761;42.126;24.752;2023-05-07T10:01:38;4.97;;;3.03;;
65174;SDS011;51761;42.126;24.752;2023-05-07T10:04:07;8.75;;;3.08;;
65174;SDS011;51761;42.126;24.752;2023-05-07T10:06:36;5.28;;;3.05;;
65174;SDS011;51761;42.126;24.752;2023-05-07T10:09:03;4.95;;;3.10;;
65174;SDS011;51761;42.126;24.752;2023-05-07T10:11:32;4.97;;;3.00;;
65174;SDS011;51761;42.126;24.752;2023-05-07T10:14:04;5.30;;;3.05;;
65174;SDS011;51761;42.126;24.752;2023-05-07T10:16:34;11.25;;;2.85;;
65174;SDS011;51761;42.126;24.752;2023-05-07T10:19:04;5.88;;;2.95;;
65174;SDS011;51761;42.126;24.752;2023-05-07T10:21:30;6.30;;;3.05;;
65174;SDS011;51761;42.126;24.752;2023-05-07T10:24:04;7.85;;;3.10;;
65174;SDS011;51761;42.126;24.752;2023-05-07T10:26:38;7.35;;;2.83;;
65174;SDS011;51761;42.126;24.752;2023-05-07T10:34:36;4.88;;;3.38;;
65174;SDS011;51761;42.126;24.752;2023-05-07T10:37:05;8.23;;;3.25;;
65174;SDS011;51761;42.126;24.752;2023-05-07T10:39:32;7.80;;;3.30;;
65174;SDS011;51761;42.126;24.752;2023-05-07T10:42:06;7.15;;;3.20;;
65174;SDS011;51761;42.126;24.752;2023-05-07T10:44:33;5.63;;;3.20;;
65174;SDS011;51761;42.126;24.752;2023-05-07T10:47:11;4.40;;;2.63;;
65174;SDS011;51761;42.126;24.752;2023-05-07T10:52:16;5.68;;;2.67;;
65174;SDS011;51761;42.126;24.752;2023-05-07T10:54:46;3.83;;;2.58;;
65174;SDS011;51761;42.126;24.752;2023-05-07T10:59:55;5.53;;;2.40;;
65174;SDS011;51761;42.126;24.752;2023-05-07T11:02:21;3.78;;;2.60;;
65174;SDS011;51761;42.126;24.752;2023-05-07T11:05:18;8.65;;;2.75;;
65174;SDS011;51761;42.126;24.752;2023-05-07T11:07:50;5.25;;;3.15;;
65174;SDS011;51761;42.126;24.752;2023-05-07T11:10:22;7.25;;;2.90;;
65174;SDS011;51761;42.126;24.752;2023-05-07T11:15:15;3.60;;;2.42;;
65174;SDS011;51761;42.126;24.752;2023-05-07T11:17:58;9.05;;;3.13;;
65174;SDS011;51761;42.126;24.752;2023-05-07T11:26:05;4.75;;;2.50;;
65174;SDS011;51761;42.126;24.752;2023-05-07T11:28:32;5.93;;;2.85;;
65174;SDS011;51761;42.126;24.752;2023-05-07T11:31:02;3.97;;;2.75;;
65174;SDS011;51761;42.126;24.752;2023-05-07T11:33:28;3.58;;;2.40;;
65174;SDS011;51761;42.126;24.752;2023-05-07T11:35:55;3.92;;;2.17;;
65174;SDS011;51761;42.126;24.752;2023-05-07T11:38:21;4.35;;;2.60;;
65174;SDS011;51761;42.126;24.752;2023-05-07T11:40:55;5.55;;;2.47;;
65174;SDS011;51761;42.126;24.752;2023-05-07T11:43:21;7.15;;;3.55;;
65174;SDS011;51761;42.126;24.752;2023-05-07T11:45:47;7.45;;;3.10;;
65174;SDS011;51761;42.126;24.752;2023-05-07T11:48:14;4.53;;;3.03;;
65174;SDS011;51761;42.126;24.752;2023-05-07T11:50:54;4.68;;;2.50;;
65174;SDS011;51761;42.126;24.752;2023-05-07T11:53:26;3.92;;;2.65;;
65174;SDS011;51761;42.126;24.752;2023-05-07T11:55:52;4.70;;;2.70;;
65174;SDS011;51761;42.126;24.752;2023-05-07T11:58:20;6.28;;;2.30;;
65174;SDS011;51761;42.126;24.752;2023-05-07T12:00:50;9.93;;;3.28;;
65174;SDS011;51761;42.126;24.752;2023-05-07T12:03:16;4.57;;;2.83;;
65174;SDS011;51761;42.126;24.752;2023-05-07T12:05:43;4.50;;;2.63;;
65174;SDS011;51761;42.126;24.752;2023-05-07T12:08:19;4.15;;;2.70;;
65174;SDS011;51761;42.126;24.752;2023-05-07T12:10:49;5.85;;;2.88;;
65174;SDS011;51761;42.126;24.752;2023-05-07T12:13:18;4.32;;;2.78;;
65174;SDS011;51761;42.126;24.752;2023-05-07T12:15:45;6.10;;;3.10;;
65174;SDS011;51761;42.126;24.752;2023-05-07T12:18:11;3.97;;;2.88;;
65174;SDS011;51761;42.126;24.752;2023-05-07T12:20:38;6.05;;;2.97;;
65174;SDS011;51761;42.126;24.752;2023-05-07T12:23:04;8.18;;;2.88;;
65174;SDS011;51761;42.126;24.752;2023-05-07T12:25:37;6.65;;;2.42;;
65174;SDS011;51761;42.126;24.752;2023-05-07T12:28:03;5.80;;;2.33;;
65174;SDS011;51761;42.126;24.752;2023-05-07T12:30:36;6.22;;;2.95;;
65174;SDS011;51761;42.126;24.752;2023-05-07T12:33:02;4.35;;;2.72;;
65174;SDS011;51761;42.126;24.752;2023-05-07T12:35:28;10.45;;;3.03;;
65174;SDS011;51761;42.126;24.752;2023-05-07T12:37:55;4.00;;;2.60;;
65174;SDS011;51761;42.126;24.752;2023-05-07T12:40:21;5.85;;;2.70;;
65174;SDS011;51761;42.126;24.752;2023-05-07T12:42:47;7.60;;;2.70;;
65174;SDS011;51761;42.126;24.752;2023-05-07T12:45:21;4.22;;;2.63;;
65174;SDS011;51761;42.126;24.752;2023-05-07T12:47:47;5.30;;;2.50;;
65174;SDS011;51761;42.126;24.752;2023-05-07T12:50:13;4.15;;;2.80;;
65174;SDS011;51761;42.126;24.752;2023-05-07T12:52:39;15.27;;;3.25;;
65174;SDS011;51761;42.126;24.752;2023-05-07T12:55:08;3.47;;;2.65;;
65174;SDS011;51761;42.126;24.752;2023-05-07T12:57:37;10.85;;;3.50;;
65174;SDS011;51761;42.126;24.752;2023-05-07T13:00:05;8.40;;;2.78;;
65174;SDS011;51761;42.126;24.752;2023-05-07T13:02:34;5.82;;;2.72;;
65174;SDS011;51761;42.126;24.752;2023-05-07T13:05:02;5.75;;;2.50;;
65174;SDS011;51761;42.126;24.752;2023-05-07T13:07:28;4.63;;;2.85;;
65174;SDS011;51761;42.126;24.752;2023-05-07T13:09:54;4.40;;;2.42;;
65174;SDS011;51761;42.126;24.752;2023-05-07T13:12:19;4.00;;;2.50;;
65174;SDS011;51761;42.126;24.752;2023-05-07T13:14:45;5.72;;;2.53;;
65174;SDS011;51761;42.126;24.752;2023-05-07T13:17:10;4.47;;;2.42;;
65174;SDS011;51761;42.126;24.752;2023-05-07T13:19:36;7.25;;;2.45;;
65174;SDS011;51761;42.126;24.752;2023-05-07T13:22:02;5.75;;;2.53;;
65174;SDS011;51761;42.126;24.752;2023-05-07T13:24:28;5.10;;;2.50;;
65174;SDS011;51761;42.126;24.752;2023-05-07T13:26:54;5.03;;;2.67;;
65174;SDS011;51761;42.126;24.752;2023-05-07T13:29:20;3.40;;;2.55;;
65174;SDS011;51761;42.126;24.752;2023-05-07T13:31:50;4.35;;;2.40;;
65174;SDS011;51761;42.126;24.752;2023-05-07T13:34:15;4.35;;;2.92;;
65174;SDS011;51761;42.126;24.752;2023-05-07T13:36:41;3.80;;;2.45;;
65174;SDS011;51761;42.126;24.752;2023-05-07T13:39:07;5.65;;;2.20;;
65174;SDS011;51761;42.126;24.752;2023-05-07T13:41:32;8.93;;;2.55;;
65174;SDS011;51761;42.126;24.752;2023-05-07T13:43:58;7.22;;;2.83;;
65174;SDS011;51761;42.126;24.752;2023-05-07T13:46:23;8.00;;;2.50;;
65174;SDS011;51761;42.126;24.752;2023-05-07T13:48:49;3.70;;;2.28;;
65174;SDS011;51761;42.126;24.752;2023-05-07T13:51:15;6.03;;;2.63;;
65174;SDS011;51761;42.126;24.752;2023-05-07T13:53:41;5.63;;;2.22;;
65174;SDS011;51761;42.126;24.752;2023-05-07T13:56:07;6.07;;;2.90;;
65174;SDS011;51761;42.126;24.752;2023-05-07T13:58:33;6.95;;;2.72;;
65174;SDS011;51761;42.126;24.752;2023-05-07T14:00:58;4.05;;;2.00;;
65174;SDS011;51761;42.126;24.752;2023-05-07T14:03:24;4.93;;;2.55;;
65174;SDS011;51761;42.126;24.752;2023-05-07T14:05:49;5.57;;;2.38;;
65174;SDS011;51761;42.126;24.752;2023-05-07T14:08:14;6.13;;;2.38;;
65174;SDS011;51761;42.126;24.752;2023-05-07T14:10:40;6.05;;;2.20;;
65174;SDS011;51761;42.126;24.752;2023-05-07T14:13:06;3.17;;;2.30;;
65174;SDS011;51761;42.126;24.752;2023-05-07T14:15:31;2.80;;;2.00;;
65174;SDS011;51761;42.126;24.752;2023-05-07T14:18:00;6.95;;;2.20;;
65174;SDS011;51761;42.126;24.752;2023-05-07T14:20:25;3.92;;;2.70;;
65174;SDS011;51761;42.126;24.752;2023-05-07T14:22:51;8.52;;;2.53;;
65174;SDS011;51761;42.126;24.752;2023-05-07T14:25:17;5.03;;;1.95;;
65174;SDS011;51761;42.126;24.752;2023-05-07T14:27:42;4.45;;;2.60;;
65174;SDS011;51761;42.126;24.752;2023-05-07T14:30:08;4.88;;;2.17;;
65174;SDS011;51761;42.126;24.752;2023-05-07T14:32:34;6.35;;;2.05;;
65174;SDS011;51761;42.126;24.752;2023-05-07T14:34:59;7.68;;;2.22;;
65174;SDS011;51761;42.126;24.752;2023-05-07T14:37:25;3.40;;;2.50;;
65174;SDS011;51761;42.126;24.752;2023-05-07T14:39:50;4.47;;;2.22;;
65174;SDS011;51761;42.126;24.752;2023-05-07T14:42:16;9.23;;;2.55;;